createdAt,value
2023-02-05T00:00:17.547Z,10.50
2023-02-05T00:01:16.524Z,10.50
2023-02-05T00:02:16.657Z,7.90
2023-02-05T00:03:16.577Z,10.00
2023-02-05T00:04:17.022Z,9.60
2023-02-05T00:05:16.488Z,9.40
2023-02-05T00:06:16.470Z,9.40
2023-02-05T00:07:17.039Z,8.60
2023-02-05T00:08:16.551Z,7.60
2023-02-05T00:09:17.481Z,8.70
2023-02-05T00:10:16.420Z,7.40
2023-02-05T00:11:19.029Z,8.90
2023-02-05T00:12:16.411Z,8.20
2023-02-05T00:13:16.403Z,9.80
2023-02-05T00:14:16.387Z,7.70
2023-02-05T00:15:16.380Z,8.80
2023-02-05T00:16:16.422Z,8.90
2023-02-05T00:17:16.357Z,8.30
2023-02-05T00:18:16.334Z,9.90
2023-02-05T00:19:16.334Z,7.50
2023-02-05T00:20:16.347Z,9.80
2023-02-05T00:21:23.037Z,9.10
2023-02-05T00:22:16.319Z,9.70
2023-02-05T00:23:16.295Z,11.00
2023-02-05T00:24:23.030Z,9.60
2023-02-05T00:25:17.031Z,8.10
2023-02-05T00:26:16.263Z,7.10
2023-02-05T00:27:17.029Z,7.40
2023-02-05T00:28:16.366Z,8.50
2023-02-05T00:29:16.247Z,7.60
2023-02-05T00:30:16.207Z,8.20
2023-02-05T00:31:16.361Z,8.70
2023-02-05T00:32:16.204Z,8.40
2023-02-05T00:33:16.567Z,6.90
2023-02-05T00:34:16.189Z,7.90
2023-02-05T00:35:16.175Z,8.80
2023-02-05T00:36:17.213Z,8.90
2023-02-05T00:37:16.157Z,8.50
2023-02-05T00:38:16.154Z,11.20
2023-02-05T00:39:16.136Z,8.40
2023-02-05T00:40:17.022Z,10.60
2023-02-05T00:41:19.048Z,8.10
2023-02-05T00:42:16.080Z,8.50
2023-02-05T00:43:16.106Z,9.30
2023-02-05T00:44:16.052Z,10.90
2023-02-05T00:45:19.064Z,12.10
2023-02-05T00:46:16.084Z,7.80
2023-02-05T00:47:16.038Z,10.10
2023-02-05T00:48:16.009Z,9.80
2023-02-05T00:49:16.040Z,8.90
2023-02-05T00:50:15.997Z,9.20
2023-02-05T00:51:16.535Z,7.20
2023-02-05T00:52:15.986Z,8.50
2023-02-05T00:53:15.961Z,7.70
2023-02-05T00:54:15.978Z,7.00
2023-02-05T00:55:16.068Z,6.90
2023-02-05T00:56:15.931Z,6.60
2023-02-05T00:57:16.990Z,7.00
2023-02-05T00:58:18.533Z,8.70
2023-02-05T00:59:15.905Z,8.20
2023-02-05T01:00:15.885Z,8.60
2023-02-05T01:01:15.966Z,8.60
2023-02-05T01:02:15.902Z,7.80
2023-02-05T01:03:18.524Z,7.60
2023-02-05T01:04:15.866Z,7.00
2023-02-05T01:05:15.874Z,7.40
2023-02-05T01:06:16.062Z,7.40
2023-02-05T01:07:15.814Z,6.70
2023-02-05T01:08:16.823Z,7.70
2023-02-05T01:09:15.808Z,7.60
2023-02-05T01:10:15.817Z,6.90
2023-02-05T01:11:19.602Z,7.20
2023-02-05T01:12:15.782Z,8.20
2023-02-05T01:13:17.745Z,9.40
2023-02-05T01:14:15.737Z,9.00
2023-02-05T01:15:22.535Z,8.00
2023-02-05T01:16:16.628Z,7.20
2023-02-05T01:17:15.757Z,6.50
2023-02-05T01:18:15.703Z,6.50
2023-02-05T01:19:16.540Z,7.80
2023-02-05T01:20:15.679Z,7.80
2023-02-05T01:21:15.701Z,8.30
2023-02-05T01:22:15.712Z,9.00
2023-02-05T01:23:15.656Z,8.60
2023-02-05T01:24:15.644Z,7.20
2023-02-05T01:25:15.622Z,8.40
2023-02-05T01:26:15.683Z,7.30
2023-02-05T01:27:15.634Z,7.80
2023-02-05T01:28:15.726Z,7.60
2023-02-05T01:29:15.588Z,7.20
2023-02-05T01:30:15.578Z,7.40
2023-02-05T01:31:22.706Z,8.90
2023-02-05T01:32:15.572Z,7.30
2023-02-05T01:33:15.567Z,7.90
2023-02-05T01:34:15.556Z,8.70
2023-02-05T01:35:15.533Z,8.60
2023-02-05T01:36:15.520Z,7.80
2023-02-05T01:37:15.500Z,8.60
2023-02-05T01:38:15.551Z,8.60
2023-02-05T01:39:15.479Z,8.30
2023-02-05T01:40:15.461Z,9.30
2023-02-05T01:41:15.481Z,8.70
2023-02-05T01:42:15.434Z,9.20
2023-02-05T01:43:15.456Z,9.20
2023-02-05T01:44:15.417Z,8.20
2023-02-05T01:45:16.460Z,7.90
2023-02-05T01:46:15.444Z,8.20
2023-02-05T01:47:17.429Z,11.00
2023-02-05T01:48:15.363Z,7.80
2023-02-05T01:49:16.408Z,8.20
2023-02-05T01:50:15.346Z,8.00
2023-02-05T01:51:16.412Z,8.70
2023-02-05T01:52:15.330Z,9.40
2023-02-05T01:53:15.327Z,12.30
2023-02-05T01:54:15.320Z,8.70
2023-02-05T01:55:15.307Z,9.80
2023-02-05T01:56:15.311Z,8.50
2023-02-05T01:57:16.350Z,7.80
2023-02-05T01:58:15.268Z,11.00
2023-02-05T01:59:15.274Z,7.30
2023-02-05T02:00:15.264Z,8.20
2023-02-05T02:01:15.286Z,9.30
2023-02-05T02:02:15.216Z,8.00
2023-02-05T02:03:15.227Z,7.80
2023-02-05T02:04:15.210Z,9.10
2023-02-05T02:05:16.335Z,8.60
2023-02-05T02:06:16.018Z,7.90
2023-02-05T02:07:15.183Z,8.60
2023-02-05T02:08:15.164Z,9.10
2023-02-05T02:09:15.151Z,8.60
2023-02-05T02:10:16.024Z,8.50
2023-02-05T02:11:15.119Z,11.10
2023-02-05T02:12:15.132Z,8.30
2023-02-05T02:13:15.124Z,10.40
2023-02-05T02:14:15.092Z,7.90
2023-02-05T02:15:15.103Z,8.50
2023-02-05T02:16:15.137Z,8.40
2023-02-05T02:17:15.106Z,7.90
2023-02-05T02:18:15.050Z,8.70
2023-02-05T02:19:16.106Z,9.20
2023-02-05T02:20:15.038Z,8.60
2023-02-05T02:21:15.034Z,9.00
2023-02-05T02:22:17.524Z,10.00
2023-02-05T02:23:15.073Z,9.50
2023-02-05T02:24:14.988Z,12.70
2023-02-05T02:25:14.978Z,8.70
2023-02-05T02:26:14.966Z,10.90
2023-02-05T02:27:14.955Z,8.90
2023-02-05T02:28:15.061Z,8.60
2023-02-05T02:29:14.932Z,9.80
2023-02-05T02:30:14.928Z,8.60
2023-02-05T02:31:14.967Z,12.10
2023-02-05T02:32:15.534Z,11.30
2023-02-05T02:33:14.925Z,9.40
2023-02-05T02:34:14.895Z,8.40
2023-02-05T02:35:14.860Z,8.90
2023-02-05T02:36:16.567Z,11.70
2023-02-05T02:37:14.864Z,8.70
2023-02-05T02:38:15.063Z,12.00
2023-02-05T02:39:14.848Z,8.50
2023-02-05T02:40:14.815Z,9.80
2023-02-05T02:41:14.800Z,8.50
2023-02-05T02:42:16.878Z,8.80
2023-02-05T02:43:15.535Z,8.90
2023-02-05T02:44:14.795Z,9.60
2023-02-05T02:45:14.801Z,8.80
2023-02-05T02:46:14.812Z,11.40
2023-02-05T02:47:14.741Z,11.40
2023-02-05T02:48:14.757Z,11.50
2023-02-05T02:49:14.736Z,9.90
2023-02-05T02:50:14.735Z,8.20
2023-02-05T02:51:14.692Z,8.70
2023-02-05T02:52:14.698Z,10.30
2023-02-05T02:53:14.698Z,9.10
2023-02-05T02:54:14.696Z,8.60
2023-02-05T02:55:14.686Z,9.20
2023-02-05T02:56:14.681Z,9.20
2023-02-05T02:57:14.638Z,9.60
2023-02-05T02:58:14.640Z,8.90
2023-02-05T02:59:14.610Z,8.70
2023-02-05T03:00:15.666Z,10.40
2023-02-05T03:01:14.592Z,8.80
2023-02-05T03:02:14.613Z,8.80
2023-02-05T03:03:14.578Z,8.40
2023-02-05T03:04:14.561Z,9.70
2023-02-05T03:05:14.576Z,9.20
2023-02-05T03:06:14.565Z,9.60
2023-02-05T03:07:14.537Z,9.40
2023-02-05T03:08:14.526Z,8.90
2023-02-05T03:09:14.558Z,9.30
2023-02-05T03:10:14.506Z,8.60
2023-02-05T03:11:14.508Z,10.20
2023-02-05T03:12:14.500Z,9.50
2023-02-05T03:13:14.458Z,9.70
2023-02-05T03:14:14.459Z,10.10
2023-02-05T03:15:14.441Z,9.70
2023-02-05T03:16:14.478Z,10.30
2023-02-05T03:17:14.442Z,10.60
2023-02-05T03:18:14.418Z,10.20
2023-02-05T03:19:14.406Z,10.50
2023-02-05T03:20:14.400Z,10.10
2023-02-05T03:21:15.037Z,11.20
2023-02-05T03:22:14.397Z,13.00
2023-02-05T03:23:14.362Z,9.80
2023-02-05T03:24:14.358Z,9.70
2023-02-05T03:25:14.440Z,16.30
2023-02-05T03:26:14.339Z,10.30
2023-02-05T03:27:14.316Z,12.00
2023-02-05T03:28:14.598Z,11.60
2023-02-05T03:29:14.309Z,13.00
2023-02-05T03:30:14.308Z,13.20
2023-02-05T03:31:14.340Z,12.50
2023-02-05T03:32:14.268Z,13.30
2023-02-05T03:33:14.280Z,11.50
2023-02-05T03:34:14.240Z,16.00
2023-02-05T03:35:14.234Z,13.70
2023-02-05T03:36:14.222Z,12.80
2023-02-05T03:37:14.237Z,12.80
2023-02-05T03:38:14.222Z,12.30
2023-02-05T03:39:14.188Z,13.40
2023-02-05T03:40:14.205Z,12.90
2023-02-05T03:41:14.194Z,14.60
2023-02-05T03:42:14.168Z,14.00
2023-02-05T03:43:14.169Z,14.40
2023-02-05T03:44:14.134Z,17.10
2023-02-05T03:45:14.136Z,15.90
2023-02-05T03:46:14.114Z,15.80
2023-02-05T03:47:14.109Z,19.20
2023-02-05T03:48:14.132Z,16.10
2023-02-05T03:49:14.083Z,20.80
2023-02-05T03:50:14.080Z,16.50
2023-02-05T03:51:14.060Z,17.10
2023-02-05T03:52:14.058Z,18.00
2023-02-05T03:53:14.050Z,20.50
2023-02-05T03:54:14.034Z,17.80
2023-02-05T03:55:14.017Z,14.60
2023-02-05T03:56:14.015Z,16.30
2023-02-05T03:57:14.021Z,17.00
2023-02-05T03:58:16.524Z,15.90
2023-02-05T03:59:13.986Z,18.50
2023-02-05T04:00:13.976Z,18.60
2023-02-05T04:01:14.004Z,21.80
2023-02-05T04:02:13.980Z,18.90
2023-02-05T04:03:13.925Z,22.30
2023-02-05T04:04:13.951Z,21.50
2023-02-05T04:05:13.902Z,19.50
2023-02-05T04:06:13.910Z,18.20
2023-02-05T04:07:13.888Z,19.60
2023-02-05T04:08:13.879Z,20.00
2023-02-05T04:09:13.864Z,19.80
2023-02-05T04:10:13.877Z,17.90
2023-02-05T04:11:13.857Z,18.10
2023-02-05T04:12:13.831Z,19.60
2023-02-05T04:13:14.012Z,22.10
2023-02-05T04:14:13.808Z,20.20
2023-02-05T04:15:14.858Z,17.70
2023-02-05T04:16:13.819Z,17.40
2023-02-05T04:17:14.841Z,21.70
2023-02-05T04:18:13.766Z,25.90
2023-02-05T04:19:13.752Z,18.30
2023-02-05T04:20:13.771Z,22.00
2023-02-05T04:21:13.744Z,19.10
2023-02-05T04:22:13.731Z,17.50
2023-02-05T04:23:13.696Z,27.10
2023-02-05T04:24:13.777Z,18.30
2023-02-05T04:25:13.724Z,21.70
2023-02-05T04:26:13.678Z,19.30
2023-02-05T04:27:14.540Z,20.70
2023-02-05T04:28:15.916Z,24.10
2023-02-05T04:29:13.645Z,22.40
2023-02-05T04:30:13.646Z,19.10
2023-02-05T04:31:16.578Z,20.90
2023-02-05T04:32:13.637Z,20.00
2023-02-05T04:33:14.525Z,23.90
2023-02-05T04:34:13.592Z,22.00
2023-02-05T04:35:13.594Z,21.30
2023-02-05T04:36:13.576Z,19.80
2023-02-05T04:37:13.590Z,24.20
2023-02-05T04:38:14.554Z,20.90
2023-02-05T04:39:13.538Z,20.70
2023-02-05T04:40:13.546Z,21.40
2023-02-05T04:41:13.517Z,22.40
2023-02-05T04:42:16.027Z,24.70
2023-02-05T04:43:13.506Z,22.90
2023-02-05T04:44:13.536Z,19.30
2023-02-05T04:45:13.476Z,21.00
2023-02-05T04:46:13.498Z,23.00
2023-02-05T04:47:13.478Z,22.70
2023-02-05T04:48:13.453Z,21.90
2023-02-05T04:49:14.027Z,23.00
2023-02-05T04:50:13.454Z,23.40
2023-02-05T04:51:13.418Z,23.80
2023-02-05T04:52:13.412Z,21.60
2023-02-05T04:53:13.387Z,27.50
2023-02-05T04:54:13.393Z,24.20
2023-02-05T04:55:13.389Z,23.70
2023-02-05T04:56:13.379Z,18.90
2023-02-05T04:57:13.342Z,24.40
2023-02-05T04:58:14.395Z,22.70
2023-02-05T04:59:13.327Z,24.00
2023-02-05T05:00:13.373Z,22.30
2023-02-05T05:01:13.357Z,21.10
2023-02-05T05:02:13.370Z,22.60
2023-02-05T05:03:13.288Z,25.60
2023-02-05T05:04:13.296Z,22.70
2023-02-05T05:05:13.273Z,29.60
2023-02-05T05:06:13.256Z,24.00
2023-02-05T05:07:13.276Z,22.90
2023-02-05T05:08:13.226Z,24.30
2023-02-05T05:09:13.216Z,26.20
2023-02-05T05:10:13.249Z,21.70
2023-02-05T05:11:13.189Z,23.00
2023-02-05T05:12:13.193Z,23.80
2023-02-05T05:13:13.170Z,28.10
2023-02-05T05:14:13.163Z,33.30
2023-02-05T05:15:13.154Z,35.50
2023-02-05T05:16:13.264Z,32.90
2023-02-05T05:17:13.137Z,31.70
2023-02-05T05:18:13.141Z,34.50
2023-02-05T05:19:13.107Z,32.60
2023-02-05T05:20:13.115Z,27.20
2023-02-05T05:21:13.080Z,27.90
2023-02-05T05:22:13.100Z,22.90
2023-02-05T05:23:14.027Z,32.00
2023-02-05T05:24:13.052Z,25.10
2023-02-05T05:25:13.042Z,32.30
2023-02-05T05:26:13.051Z,35.90
2023-02-05T05:27:13.059Z,32.30
2023-02-05T05:28:13.092Z,28.50
2023-02-05T05:29:13.024Z,31.40
2023-02-05T05:30:12.997Z,28.30
2023-02-05T05:31:13.020Z,27.50
2023-02-05T05:32:13.166Z,30.00
2023-02-05T05:33:13.522Z,26.20
2023-02-05T05:34:12.953Z,26.50
2023-02-05T05:35:12.938Z,25.00
2023-02-05T05:36:13.944Z,22.40
2023-02-05T05:37:12.936Z,23.10
2023-02-05T05:38:12.927Z,24.20
2023-02-05T05:39:12.897Z,27.50
2023-02-05T05:40:12.888Z,25.10
2023-02-05T05:41:12.868Z,25.60
2023-02-05T05:42:13.905Z,25.30
2023-02-05T05:43:12.876Z,28.50
2023-02-05T05:44:12.850Z,25.60
2023-02-05T05:45:12.838Z,28.00
2023-02-05T05:46:12.962Z,31.60
2023-02-05T05:47:12.815Z,31.00
2023-02-05T05:48:12.822Z,28.50
2023-02-05T05:49:12.784Z,31.40
2023-02-05T05:50:12.785Z,28.70
2023-02-05T05:51:12.764Z,30.80
2023-02-05T05:52:12.772Z,30.10
2023-02-05T05:53:12.743Z,31.30
2023-02-05T05:54:12.784Z,32.70
2023-02-05T05:55:12.716Z,34.50
2023-02-05T05:56:12.712Z,29.30
2023-02-05T05:57:12.726Z,29.90
2023-02-05T05:58:12.693Z,29.00
2023-02-05T05:59:12.671Z,37.00
2023-02-05T06:00:12.688Z,36.40
2023-02-05T06:01:12.658Z,31.40
2023-02-05T06:02:12.717Z,33.70
2023-02-05T06:03:12.630Z,30.70
2023-02-05T06:04:12.711Z,33.30
2023-02-05T06:05:13.060Z,29.30
2023-02-05T06:06:12.598Z,31.50
2023-02-05T06:07:12.606Z,28.90
2023-02-05T06:08:12.571Z,38.90
2023-02-05T06:09:12.582Z,33.30
2023-02-05T06:10:12.608Z,32.30
2023-02-05T06:11:12.557Z,30.40
2023-02-05T06:12:12.517Z,31.40
2023-02-05T06:13:12.531Z,33.90
2023-02-05T06:14:12.514Z,34.00
2023-02-05T06:15:12.514Z,34.70
2023-02-05T06:16:12.532Z,35.90
2023-02-05T06:17:12.498Z,35.00
2023-02-05T06:18:12.467Z,32.50
2023-02-05T06:19:13.463Z,30.90
2023-02-05T06:20:12.486Z,34.80
2023-02-05T06:21:33.431Z,35.80
2023-02-05T06:22:12.434Z,41.90
2023-02-05T06:23:12.422Z,33.30
2023-02-05T06:24:12.425Z,40.60
2023-02-05T06:25:15.021Z,35.40
2023-02-05T06:26:17.080Z,39.90
2023-02-05T06:27:12.360Z,37.20
2023-02-05T06:28:13.427Z,39.10
2023-02-05T06:29:12.365Z,37.10
2023-02-05T06:30:12.336Z,37.50
2023-02-05T06:31:12.464Z,33.40
2023-02-05T06:32:13.409Z,42.10
2023-02-05T06:33:12.293Z,38.70
2023-02-05T06:34:12.300Z,39.40
2023-02-05T06:35:12.547Z,35.40
2023-02-05T06:36:13.330Z,43.10
2023-02-05T06:37:12.267Z,39.50
2023-02-05T06:38:13.308Z,42.70
2023-02-05T06:39:12.227Z,44.10
2023-02-05T06:40:14.072Z,50.40
2023-02-05T06:41:12.205Z,50.30
2023-02-05T06:42:12.211Z,42.50
2023-02-05T06:43:12.251Z,41.30
2023-02-05T06:44:13.035Z,46.40
2023-02-05T06:45:12.186Z,50.70
2023-02-05T06:46:12.245Z,45.70
2023-02-05T06:47:13.017Z,48.10
2023-02-05T06:48:13.066Z,46.00
2023-02-05T06:49:12.157Z,48.40
2023-02-05T06:50:12.134Z,43.40
2023-02-05T06:51:15.022Z,46.00
2023-02-05T06:52:14.079Z,44.70
2023-02-05T06:53:12.066Z,51.90
2023-02-05T06:54:33.064Z,60.10
2023-02-05T06:55:12.060Z,60.50
2023-02-05T06:56:12.060Z,43.90
2023-02-05T06:57:12.054Z,50.40
2023-02-05T06:58:12.025Z,53.40
2023-02-05T06:59:12.019Z,47.40
2023-02-05T07:00:18.513Z,53.90
2023-02-05T07:01:12.037Z,49.10
2023-02-05T07:02:11.970Z,50.20
2023-02-05T07:03:12.534Z,52.50
2023-02-05T07:04:11.960Z,57.90
2023-02-05T07:05:11.952Z,55.90
2023-02-05T07:06:11.948Z,54.40
2023-02-05T07:07:11.955Z,51.40
2023-02-05T07:08:11.938Z,53.40
2023-02-05T07:09:11.921Z,55.50
2023-02-05T07:10:11.898Z,61.90
2023-02-05T07:11:11.885Z,55.40
2023-02-05T07:12:11.873Z,54.10
2023-02-05T07:13:11.890Z,58.40
2023-02-05T07:14:11.846Z,66.40
2023-02-05T07:15:11.832Z,56.40
2023-02-05T07:16:12.956Z,59.30
2023-02-05T07:17:11.823Z,60.40
2023-02-05T07:18:11.801Z,57.50
2023-02-05T07:19:11.819Z,64.00
2023-02-05T07:20:11.793Z,56.50
2023-02-05T07:21:11.795Z,59.60
2023-02-05T07:22:11.755Z,68.50
2023-02-05T07:23:11.748Z,74.40
2023-02-05T07:24:11.774Z,62.20
2023-02-05T07:25:11.743Z,61.50
2023-02-05T07:26:11.740Z,65.20
2023-02-05T07:27:11.723Z,63.60
2023-02-05T07:28:11.702Z,63.80
2023-02-05T07:29:11.684Z,66.50
2023-02-05T07:30:11.667Z,66.90
2023-02-05T07:31:11.783Z,60.40
2023-02-05T07:32:12.646Z,60.30
2023-02-05T07:33:11.644Z,63.80
2023-02-05T07:34:11.737Z,63.50
2023-02-05T07:35:12.536Z,66.20
2023-02-05T07:36:11.617Z,73.90
2023-02-05T07:37:12.060Z,74.70
2023-02-05T07:38:11.596Z,62.90
2023-02-05T07:39:11.585Z,61.10
2023-02-05T07:40:11.588Z,65.20
2023-02-05T07:41:11.576Z,73.60
2023-02-05T07:42:11.539Z,70.20
2023-02-05T07:43:13.581Z,58.60
2023-02-05T07:44:11.515Z,65.30
2023-02-05T07:45:12.569Z,66.10
2023-02-05T07:46:11.551Z,66.60
2023-02-05T07:47:11.489Z,66.60
2023-02-05T07:48:11.479Z,69.70
2023-02-05T07:49:11.487Z,58.80
2023-02-05T07:50:11.468Z,67.80
2023-02-05T07:51:11.460Z,62.90
2023-02-05T07:52:11.429Z,71.90
2023-02-05T07:53:11.410Z,63.30
2023-02-05T07:54:11.414Z,69.50
2023-02-05T07:55:11.548Z,61.50
2023-02-05T07:56:11.420Z,70.10
2023-02-05T07:57:12.042Z,63.20
2023-02-05T07:58:11.365Z,62.40
2023-02-05T07:59:11.346Z,67.30
2023-02-05T08:00:11.361Z,58.00
2023-02-05T08:01:11.427Z,57.20
2023-02-05T08:02:11.308Z,64.40
2023-02-05T08:03:11.309Z,60.00
2023-02-05T08:04:11.334Z,62.10
2023-02-05T08:05:11.287Z,61.00
2023-02-05T08:06:11.561Z,62.60
2023-02-05T08:07:11.269Z,62.00
2023-02-05T08:08:11.248Z,57.00
2023-02-05T08:09:12.307Z,53.00
2023-02-05T08:10:11.240Z,44.90
2023-02-05T08:11:11.257Z,50.80
2023-02-05T08:12:11.222Z,45.60
2023-02-05T08:13:11.212Z,46.80
2023-02-05T08:14:11.185Z,43.70
2023-02-05T08:15:11.191Z,42.60
2023-02-05T08:16:11.221Z,42.70
2023-02-05T08:17:11.154Z,45.90
2023-02-05T08:18:12.027Z,46.80
2023-02-05T08:19:12.764Z,38.40
2023-02-05T08:20:11.125Z,46.30
2023-02-05T08:21:11.122Z,47.40
2023-02-05T08:22:12.046Z,43.90
2023-02-05T08:23:11.092Z,42.30
2023-02-05T08:24:11.126Z,36.60
2023-02-05T08:25:12.033Z,40.60
2023-02-05T08:26:12.049Z,42.10
2023-02-05T08:27:12.074Z,42.50
2023-02-05T08:28:12.096Z,42.30
2023-02-05T08:29:11.041Z,41.20
2023-02-05T08:30:11.524Z,43.70
2023-02-05T08:31:11.004Z,44.90
2023-02-05T08:32:11.055Z,45.70
2023-02-05T08:33:10.975Z,46.40
2023-02-05T08:34:11.048Z,40.40
2023-02-05T08:35:10.988Z,42.80
2023-02-05T08:36:10.944Z,40.70
2023-02-05T08:37:11.068Z,42.80
2023-02-05T08:38:10.929Z,40.60
2023-02-05T08:39:10.937Z,39.70
2023-02-05T08:40:10.911Z,43.20
2023-02-05T08:41:10.891Z,43.00
2023-02-05T08:42:10.902Z,42.30
2023-02-05T08:43:10.872Z,35.70
2023-02-05T08:44:10.874Z,38.60
2023-02-05T08:45:10.883Z,38.40
2023-02-05T08:46:11.543Z,44.20
2023-02-05T08:47:10.833Z,38.90
2023-02-05T08:48:10.822Z,33.40
2023-02-05T08:49:10.800Z,42.30
2023-02-05T08:50:10.802Z,38.40
2023-02-05T08:51:10.811Z,33.70
2023-02-05T08:52:10.775Z,34.10
2023-02-05T08:53:10.763Z,36.40
2023-02-05T08:54:10.753Z,32.70
2023-02-05T08:55:10.736Z,36.60
2023-02-05T08:56:11.527Z,31.40
2023-02-05T08:57:11.062Z,29.60
2023-02-05T08:58:10.697Z,25.50
2023-02-05T08:59:11.739Z,25.80
2023-02-05T09:00:10.732Z,26.70
2023-02-05T09:01:11.784Z,24.40
2023-02-05T09:02:10.675Z,22.80
2023-02-05T09:03:10.684Z,22.60
2023-02-05T09:04:10.696Z,17.10
2023-02-05T09:05:10.630Z,18.40
2023-02-05T09:06:10.647Z,14.70
2023-02-05T09:07:10.647Z,12.50
2023-02-05T09:08:10.616Z,14.30
2023-02-05T09:09:10.598Z,12.40
2023-02-05T09:10:10.588Z,12.50
2023-02-05T09:11:10.564Z,10.00
2023-02-05T09:12:10.633Z,9.50
2023-02-05T09:13:10.566Z,8.00
2023-02-05T09:14:10.537Z,6.10
2023-02-05T09:15:10.549Z,5.80
2023-02-05T09:16:10.526Z,5.30
2023-02-05T09:17:13.038Z,6.70
2023-02-05T09:18:11.017Z,5.10
2023-02-05T09:19:10.487Z,6.30
2023-02-05T09:20:10.465Z,4.90
2023-02-05T09:21:10.499Z,3.50
2023-02-05T09:22:10.440Z,4.80
2023-02-05T09:23:10.483Z,4.20
2023-02-05T09:24:10.440Z,5.80
2023-02-05T09:25:10.430Z,3.50
2023-02-05T09:26:10.407Z,4.90
2023-02-05T09:27:10.398Z,5.00
2023-02-05T09:28:10.476Z,5.30
2023-02-05T09:29:10.392Z,6.00
2023-02-05T09:30:10.380Z,5.20
2023-02-05T09:31:10.463Z,5.70
2023-02-05T09:32:10.345Z,5.00
2023-02-05T09:33:10.326Z,4.60
2023-02-05T09:34:10.379Z,4.30
2023-02-05T09:35:10.306Z,4.60
2023-02-05T09:36:12.346Z,3.70
2023-02-05T09:37:10.286Z,2.70
2023-02-05T09:38:10.277Z,3.80
2023-02-05T09:39:18.425Z,5.90
2023-02-05T09:40:20.995Z,2.40
2023-02-05T09:41:11.247Z,4.10
2023-02-05T09:42:10.265Z,3.40
2023-02-05T09:43:10.225Z,3.90
2023-02-05T09:44:10.205Z,2.70
2023-02-05T09:45:10.231Z,1.80
2023-02-05T09:46:10.250Z,2.80
2023-02-05T09:47:10.173Z,3.50
2023-02-05T09:48:10.193Z,2.20
2023-02-05T09:49:10.176Z,3.50
2023-02-05T09:50:10.136Z,2.80
2023-02-05T09:51:10.135Z,3.30
2023-02-05T09:52:10.126Z,2.40
2023-02-05T09:53:10.125Z,2.70
2023-02-05T09:54:10.112Z,3.90
2023-02-05T09:55:10.073Z,3.20
2023-02-05T09:56:10.114Z,1.40
2023-02-05T09:57:10.053Z,1.00
2023-02-05T09:58:10.056Z,2.20
2023-02-05T09:59:11.053Z,3.40
2023-02-05T10:00:10.047Z,2.60
2023-02-05T10:01:10.059Z,2.60
2023-02-05T10:02:10.028Z,1.10
2023-02-05T10:03:09.991Z,2.10
2023-02-05T10:04:10.050Z,3.00
2023-02-05T10:05:10.565Z,2.50
2023-02-05T10:06:10.052Z,4.00
2023-02-05T10:07:09.945Z,1.30
2023-02-05T10:08:10.529Z,2.50
2023-02-05T10:09:09.928Z,1.20
2023-02-05T10:10:09.921Z,2.70
2023-02-05T10:11:10.059Z,2.30
2023-02-05T10:12:09.892Z,1.70
2023-02-05T10:13:09.912Z,2.60
2023-02-05T10:14:09.880Z,2.90
2023-02-05T10:15:09.862Z,1.20
2023-02-05T10:16:09.897Z,1.30
2023-02-05T10:17:09.833Z,0.80
2023-02-05T10:18:09.838Z,1.90
2023-02-05T10:19:09.831Z,1.50
2023-02-05T10:20:09.830Z,2.50
2023-02-05T10:21:09.815Z,0.90
2023-02-05T10:22:09.784Z,2.60
2023-02-05T10:23:09.788Z,0.80
2023-02-05T10:24:09.793Z,1.10
2023-02-05T10:25:09.747Z,1.60
2023-02-05T10:26:09.782Z,1.80
2023-02-05T10:27:09.724Z,3.40
2023-02-05T10:28:09.777Z,2.50
2023-02-05T10:29:09.710Z,3.60
2023-02-05T10:30:09.739Z,1.10
2023-02-05T10:31:09.803Z,2.40
2023-02-05T10:32:09.684Z,3.40
2023-02-05T10:33:09.683Z,2.40
2023-02-05T10:34:10.693Z,1.70
2023-02-05T10:35:09.643Z,3.20
2023-02-05T10:36:10.696Z,1.50
2023-02-05T10:37:09.616Z,2.20
2023-02-05T10:38:10.690Z,2.50
2023-02-05T10:39:09.600Z,2.00
2023-02-05T10:40:09.614Z,1.20
2023-02-05T10:41:09.567Z,0.90
2023-02-05T10:42:09.587Z,0.90
2023-02-05T10:43:09.560Z,1.70
2023-02-05T10:44:09.543Z,2.40
2023-02-05T10:45:09.527Z,0.70
2023-02-05T10:46:09.578Z,2.20
2023-02-05T10:47:09.501Z,2.20
2023-02-05T10:48:09.529Z,1.90
2023-02-05T10:49:09.493Z,3.40
2023-02-05T10:50:09.516Z,2.20
2023-02-05T10:51:09.463Z,1.70
2023-02-05T10:52:09.482Z,0.80
2023-02-05T10:53:09.434Z,1.70
2023-02-05T10:54:09.444Z,1.70
2023-02-05T10:55:09.414Z,2.80
2023-02-05T10:56:09.456Z,2.20
2023-02-05T10:57:09.398Z,3.20
2023-02-05T10:58:10.032Z,1.30
2023-02-05T10:59:09.374Z,1.20
2023-02-05T11:00:09.425Z,2.70
2023-02-05T11:01:09.354Z,2.00
2023-02-05T11:02:09.370Z,1.80
2023-02-05T11:03:09.329Z,2.50
2023-02-05T11:04:09.316Z,1.40
2023-02-05T11:05:09.306Z,3.00
2023-02-05T11:06:09.295Z,2.20
2023-02-05T11:07:09.300Z,3.40
2023-02-05T11:08:09.331Z,1.40
2023-02-05T11:09:09.265Z,1.20
2023-02-05T11:10:09.263Z,1.50
2023-02-05T11:11:09.238Z,2.40
2023-02-05T11:12:09.235Z,1.30
2023-02-05T11:13:09.220Z,2.80
2023-02-05T11:14:09.219Z,1.90
2023-02-05T11:15:09.208Z,1.80
2023-02-05T11:16:09.302Z,2.00
2023-02-05T11:17:09.170Z,3.40
2023-02-05T11:18:09.169Z,2.40
2023-02-05T11:19:09.157Z,2.30
2023-02-05T11:20:09.152Z,3.30
2023-02-05T11:21:10.064Z,2.70
2023-02-05T11:22:09.124Z,3.10
2023-02-05T11:23:09.107Z,2.80
2023-02-05T11:24:09.146Z,2.40
2023-02-05T11:25:09.097Z,2.50
2023-02-05T11:26:09.078Z,4.30
2023-02-05T11:27:16.041Z,2.60
2023-02-05T11:28:09.096Z,2.90
2023-02-05T11:29:10.071Z,4.70
2023-02-05T11:30:09.052Z,3.70
2023-02-05T11:31:09.126Z,3.60
2023-02-05T11:32:12.641Z,4.30
2023-02-05T11:33:08.985Z,3.40
2023-02-05T11:34:08.994Z,4.30
2023-02-05T11:35:08.968Z,6.70
2023-02-05T11:36:08.996Z,4.40
2023-02-05T11:37:11.517Z,6.80
2023-02-05T11:38:08.955Z,3.10
2023-02-05T11:39:08.933Z,3.80
2023-02-05T11:40:09.071Z,4.90
2023-02-05T11:41:08.913Z,5.90
2023-02-05T11:42:11.539Z,4.40
2023-02-05T11:43:08.908Z,5.50
2023-02-05T11:44:08.891Z,7.10
2023-02-05T11:45:09.051Z,6.50
2023-02-05T11:46:11.575Z,5.60
2023-02-05T11:47:08.846Z,6.10
2023-02-05T11:48:08.853Z,4.80
2023-02-05T11:49:08.867Z,6.20
2023-02-05T11:50:08.811Z,6.90
2023-02-05T11:51:09.075Z,6.30
2023-02-05T11:52:09.530Z,5.20
2023-02-05T11:53:08.794Z,6.40
2023-02-05T11:54:08.772Z,5.70
2023-02-05T11:55:08.769Z,6.60
2023-02-05T11:56:08.763Z,4.90
2023-02-05T11:57:08.732Z,6.90
2023-02-05T11:58:09.791Z,3.90
2023-02-05T11:59:08.721Z,5.40
2023-02-05T12:00:08.754Z,5.20
2023-02-05T12:01:08.720Z,5.10
2023-02-05T12:02:08.718Z,3.90
2023-02-05T12:03:08.703Z,3.70
2023-02-05T12:04:08.673Z,3.10
2023-02-05T12:05:08.647Z,5.60
2023-02-05T12:06:09.782Z,2.60
2023-02-05T12:07:08.656Z,3.10
2023-02-05T12:08:09.347Z,3.40
2023-02-05T12:09:08.597Z,2.30
2023-02-05T12:10:08.601Z,3.30
2023-02-05T12:11:08.581Z,5.10
2023-02-05T12:12:08.630Z,2.60
2023-02-05T12:13:08.565Z,4.00
2023-02-05T12:14:08.547Z,4.30
2023-02-05T12:15:08.541Z,4.00
2023-02-05T12:16:08.590Z,3.20
2023-02-05T12:17:08.546Z,2.30
2023-02-05T12:18:08.514Z,2.10
2023-02-05T12:19:08.502Z,3.70
2023-02-05T12:20:08.495Z,2.30
2023-02-05T12:21:09.033Z,4.70
2023-02-05T12:22:08.483Z,4.70
2023-02-05T12:23:08.466Z,2.90
2023-02-05T12:24:08.454Z,4.10
2023-02-05T12:25:08.456Z,3.20
2023-02-05T12:26:08.425Z,4.90
2023-02-05T12:27:08.437Z,3.30
2023-02-05T12:28:08.621Z,2.70
2023-02-05T12:29:08.415Z,3.80
2023-02-05T12:30:08.407Z,3.20
2023-02-05T12:31:08.376Z,3.60
2023-02-05T12:32:08.366Z,4.20
2023-02-05T12:33:10.398Z,3.80
2023-02-05T12:34:08.350Z,3.50
2023-02-05T12:35:08.339Z,4.00
2023-02-05T12:36:09.033Z,4.70
2023-02-05T12:37:08.302Z,5.80
2023-02-05T12:38:08.300Z,4.50
2023-02-05T12:39:08.269Z,6.00
2023-02-05T12:40:08.288Z,4.00
2023-02-05T12:41:08.263Z,4.50
2023-02-05T12:42:08.248Z,5.00
2023-02-05T12:43:08.236Z,3.80
2023-02-05T12:44:08.262Z,4.30
2023-02-05T12:45:08.197Z,4.10
2023-02-05T12:46:08.259Z,5.80
2023-02-05T12:47:08.198Z,4.90
2023-02-05T12:48:08.177Z,3.80
2023-02-05T12:49:08.172Z,4.70
2023-02-05T12:50:08.145Z,6.60
2023-02-05T12:51:08.136Z,5.60
2023-02-05T12:52:08.135Z,6.90
2023-02-05T12:53:08.544Z,4.80
2023-02-05T12:54:08.111Z,3.60
2023-02-05T12:55:09.022Z,3.70
2023-02-05T12:56:08.112Z,3.70
2023-02-05T12:57:08.085Z,3.30
2023-02-05T12:58:08.072Z,3.50
2023-02-05T12:59:08.054Z,4.10
2023-02-05T13:00:08.070Z,3.60
2023-02-05T13:01:08.074Z,3.60
2023-02-05T13:02:08.041Z,3.90
2023-02-05T13:03:08.015Z,4.40
2023-02-05T13:04:10.576Z,3.90
2023-02-05T13:05:07.983Z,4.80